createdAt,value
2022-11-13T00:02:19.099Z,28.05
2022-11-13T00:05:04.439Z,28.00
2022-11-13T00:07:49.423Z,27.83
2022-11-13T00:10:34.608Z,28.38
2022-11-13T00:13:19.823Z,28.38
2022-11-13T00:16:11.583Z,28.15
2022-11-13T00:18:56.800Z,26.52
2022-11-13T00:21:41.662Z,27.15
2022-11-13T00:24:26.719Z,27.17
2022-11-13T00:27:12.128Z,28.55
2022-11-13T00:29:57.523Z,26.88
2022-11-13T00:32:42.681Z,26.52
2022-11-13T00:35:27.579Z,27.70
2022-11-13T00:38:12.562Z,28.17
2022-11-13T00:40:58.150Z,27.80
2022-11-13T00:43:43.515Z,27.92
2022-11-13T00:46:28.668Z,28.10
2022-11-13T00:49:13.675Z,27.48
2022-11-13T00:52:00.179Z,29.25
2022-11-13T00:54:45.229Z,27.45
2022-11-13T00:57:30.117Z,28.58
2022-11-13T01:00:15.684Z,28.77
2022-11-13T01:03:00.726Z,28.27
2022-11-13T01:05:46.679Z,29.02
2022-11-13T01:08:31.866Z,29.40
2022-11-13T01:11:19.763Z,28.58
2022-11-13T01:14:04.794Z,29.25
2022-11-13T01:16:49.612Z,27.70
2022-11-13T01:19:34.707Z,29.80
2022-11-13T01:22:19.923Z,28.52
2022-11-13T01:25:05.452Z,27.95
2022-11-13T01:27:50.860Z,26.88
2022-11-13T01:30:35.867Z,28.98
2022-11-13T01:33:20.780Z,30.45
2022-11-13T01:36:12.441Z,29.33
2022-11-13T01:38:57.902Z,28.63
2022-11-13T01:41:42.919Z,30.25
2022-11-13T01:44:49.604Z,30.73
2022-11-13T01:47:35.740Z,28.65
2022-11-13T01:50:20.704Z,28.63
2022-11-13T01:53:07.170Z,29.83
2022-11-13T01:55:52.593Z,29.25
2022-11-13T01:58:38.301Z,30.63
2022-11-13T02:01:23.432Z,29.70
2022-11-13T02:04:08.940Z,29.50
2022-11-13T02:06:57.671Z,29.88
2022-11-13T02:09:45.231Z,30.83
2022-11-13T02:12:37.329Z,29.00
2022-11-13T02:15:25.317Z,29.27
2022-11-13T02:18:11.150Z,29.17
2022-11-13T02:21:01.777Z,28.45
2022-11-13T02:23:51.398Z,27.98
2022-11-13T02:26:37.647Z,27.05
2022-11-13T02:29:22.655Z,24.70
2022-11-13T02:32:07.650Z,24.58
2022-11-13T02:34:52.507Z,24.33
2022-11-13T02:37:37.604Z,22.38
2022-11-13T02:40:24.117Z,20.90
2022-11-13T02:43:09.057Z,20.30
2022-11-13T02:45:54.584Z,17.58
2022-11-13T02:48:39.711Z,15.88
2022-11-13T02:51:24.758Z,13.20
2022-11-13T02:54:15.562Z,13.82
2022-11-13T02:57:01.813Z,12.00
2022-11-13T02:59:46.655Z,11.25
2022-11-13T03:02:31.531Z,10.93
2022-11-13T03:05:16.587Z,9.65
2022-11-13T03:08:01.677Z,9.60
2022-11-13T03:10:46.689Z,8.88
2022-11-13T03:13:31.627Z,8.88
2022-11-13T03:16:17.866Z,8.68
2022-11-13T03:19:03.753Z,9.07
2022-11-13T03:21:49.025Z,8.82
2022-11-13T03:24:33.924Z,8.10
2022-11-13T03:27:19.676Z,8.52
2022-11-13T03:30:05.540Z,7.80
2022-11-13T03:32:57.759Z,8.45
2022-11-13T03:35:46.697Z,8.48
2022-11-13T03:38:34.236Z,8.45
2022-11-13T03:41:19.538Z,8.07
2022-11-13T03:44:04.502Z,8.63
2022-11-13T03:46:49.503Z,8.63
2022-11-13T03:49:34.592Z,8.93
2022-11-13T03:52:19.717Z,8.50
2022-11-13T03:55:05.119Z,8.07
2022-11-13T03:57:50.140Z,8.35
2022-11-13T04:00:35.324Z,8.32
2022-11-13T04:03:20.544Z,8.15
2022-11-13T04:06:05.989Z,8.30
2022-11-13T04:08:51.101Z,8.02
2022-11-13T04:11:36.141Z,8.15
2022-11-13T04:14:20.955Z,9.07
2022-11-13T04:17:06.005Z,8.10
2022-11-13T04:19:50.883Z,8.35
2022-11-13T04:22:35.979Z,8.45
2022-11-13T04:25:21.235Z,8.10
2022-11-13T04:28:06.430Z,7.88
2022-11-13T04:30:54.063Z,8.15
2022-11-13T04:33:39.123Z,8.07
2022-11-13T04:36:24.008Z,8.05
2022-11-13T04:39:08.897Z,8.27
2022-11-13T04:42:12.516Z,7.93
2022-11-13T04:44:57.867Z,7.63
2022-11-13T04:47:43.689Z,7.88
2022-11-13T04:50:28.907Z,8.07
2022-11-13T04:53:13.782Z,8.35
2022-11-13T04:55:58.683Z,8.15
2022-11-13T04:58:44.256Z,7.68
2022-11-13T05:01:29.245Z,8.40
2022-11-13T05:04:15.344Z,8.23
2022-11-13T05:07:00.591Z,7.93
2022-11-13T05:09:45.532Z,8.27
2022-11-13T05:12:30.504Z,8.35
2022-11-13T05:15:15.470Z,8.27
2022-11-13T05:18:00.474Z,8.70
2022-11-13T05:20:45.703Z,7.93
2022-11-13T05:23:30.997Z,7.78
2022-11-13T05:26:16.112Z,7.78
2022-11-13T05:29:01.322Z,7.53
2022-11-13T05:31:46.708Z,7.97
2022-11-13T05:34:31.791Z,8.38
2022-11-13T05:37:17.083Z,8.25
2022-11-13T05:40:01.953Z,8.40
2022-11-13T05:42:47.091Z,8.88
2022-11-13T05:45:32.137Z,7.78
2022-11-13T05:48:17.031Z,9.07
2022-11-13T05:51:10.306Z,8.15
2022-11-13T05:53:55.640Z,8.88
2022-11-13T05:56:40.564Z,8.45
2022-11-13T05:59:25.899Z,8.65
2022-11-13T06:02:11.008Z,8.07
2022-11-13T06:04:56.702Z,8.02
2022-11-13T06:07:41.818Z,8.48
2022-11-13T06:10:26.735Z,8.30
2022-11-13T06:13:11.733Z,8.40
2022-11-13T06:16:05.979Z,8.13
2022-11-13T06:18:55.349Z,9.15
2022-11-13T06:21:41.131Z,7.80
2022-11-13T06:24:26.159Z,7.95
2022-11-13T06:27:10.944Z,7.65
2022-11-13T06:29:55.772Z,7.78
2022-11-13T06:32:40.703Z,8.38
2022-11-13T06:35:26.012Z,7.95
2022-11-13T06:38:11.042Z,7.90
2022-11-13T06:40:57.072Z,7.75
2022-11-13T06:43:42.471Z,7.57
2022-11-13T06:46:29.084Z,7.80
2022-11-13T06:49:14.268Z,7.65
2022-11-13T06:51:59.262Z,8.02
2022-11-13T06:54:44.116Z,8.30
2022-11-13T06:57:28.973Z,7.78
2022-11-13T07:00:14.394Z,7.93
2022-11-13T07:02:59.531Z,8.45
2022-11-13T07:05:45.236Z,7.93
2022-11-13T07:08:31.202Z,8.65
2022-11-13T07:11:19.066Z,9.20
2022-11-13T07:14:04.101Z,9.15
2022-11-13T07:17:08.640Z,8.48
2022-11-13T07:19:54.518Z,8.90
2022-11-13T07:22:39.288Z,9.27
2022-11-13T07:25:24.813Z,8.95
2022-11-13T07:28:10.242Z,9.20
2022-11-13T07:30:58.602Z,9.60
2022-11-13T07:33:44.401Z,9.15
2022-11-13T07:36:29.521Z,9.57
2022-11-13T07:39:14.451Z,8.68
2022-11-13T07:41:59.298Z,8.82
2022-11-13T07:44:59.411Z,9.05
2022-11-13T07:47:44.616Z,8.32
2022-11-13T07:50:32.738Z,8.65
2022-11-13T07:53:18.970Z,8.27
2022-11-13T07:56:04.539Z,8.35
2022-11-13T07:58:49.728Z,9.02
2022-11-13T08:01:34.966Z,8.48
2022-11-13T08:04:19.912Z,8.77
2022-11-13T08:07:05.278Z,9.05
2022-11-13T08:09:50.793Z,9.30
2022-11-13T08:12:35.638Z,9.55
2022-11-13T08:15:20.533Z,9.43
2022-11-13T08:18:06.636Z,8.75
2022-11-13T08:20:52.043Z,8.98
2022-11-13T08:23:37.190Z,8.98
2022-11-13T08:26:22.861Z,8.85
2022-11-13T08:29:09.161Z,8.55
2022-11-13T08:31:54.203Z,8.90
2022-11-13T08:34:39.112Z,8.70
2022-11-13T08:37:23.969Z,8.23
2022-11-13T08:40:09.572Z,7.43
2022-11-13T08:42:59.854Z,7.18
2022-11-13T08:45:47.120Z,7.03
2022-11-13T08:48:32.207Z,6.97
2022-11-13T08:51:18.219Z,7.35
2022-11-13T08:54:03.377Z,6.60
2022-11-13T08:56:54.494Z,6.43
2022-11-13T08:59:41.072Z,6.53
2022-11-13T09:02:26.927Z,5.82
2022-11-13T09:05:12.301Z,5.60
2022-11-13T09:07:59.160Z,5.70
2022-11-13T09:10:44.796Z,5.82
2022-11-13T09:13:30.868Z,5.82
2022-11-13T09:16:15.854Z,5.68
2022-11-13T09:19:00.729Z,5.68
2022-11-13T09:21:46.919Z,5.47
2022-11-13T09:24:32.476Z,5.88
2022-11-13T09:27:18.301Z,5.55
2022-11-13T09:30:03.909Z,6.53
2022-11-13T09:32:53.114Z,6.07
2022-11-13T09:35:38.071Z,4.93
2022-11-13T09:38:23.219Z,5.30
2022-11-13T09:41:14.661Z,4.97
2022-11-13T09:44:03.984Z,5.25
2022-11-13T09:47:19.958Z,5.20
2022-11-13T09:50:14.531Z,4.15
2022-11-13T09:52:59.634Z,4.63
2022-11-13T09:55:57.940Z,4.18
2022-11-13T09:58:56.898Z,6.22
2022-11-13T10:02:09.480Z,5.30
2022-11-13T10:05:12.104Z,4.53
2022-11-13T10:08:07.440Z,4.50
2022-11-13T10:10:58.832Z,4.38
2022-11-13T10:13:47.882Z,3.97
2022-11-13T10:16:37.339Z,4.57
2022-11-13T10:19:32.078Z,5.05
2022-11-13T10:22:41.054Z,5.15
2022-11-13T10:25:32.190Z,3.70
2022-11-13T10:28:50.175Z,4.00
2022-11-13T10:31:25.414Z,4.00
2022-11-13T10:34:12.087Z,3.90
2022-11-13T10:37:29.581Z,3.90
2022-11-13T10:40:29.168Z,3.75
2022-11-13T10:43:23.040Z,3.75
2022-11-13T10:46:20.307Z,3.13
2022-11-13T10:49:13.145Z,3.33
2022-11-13T10:52:01.023Z,2.92
2022-11-13T10:54:46.386Z,3.10
2022-11-13T10:57:34.584Z,3.00
2022-11-13T11:00:24.360Z,2.85
2022-11-13T11:03:18.569Z,3.10
2022-11-13T11:06:05.340Z,2.97
2022-11-13T11:08:50.671Z,2.50
2022-11-13T11:11:54.761Z,2.58
2022-11-13T11:14:45.633Z,2.92
2022-11-13T11:17:39.407Z,3.53
2022-11-13T11:20:49.181Z,3.42
2022-11-13T11:23:40.432Z,2.90
2022-11-13T11:26:32.690Z,2.78
2022-11-13T11:29:32.023Z,3.28
2022-11-13T11:32:23.448Z,2.95
2022-11-13T11:35:20.539Z,2.90
2022-11-13T11:38:14.741Z,3.30
2022-11-13T11:41:16.483Z,3.45
2022-11-13T11:44:30.791Z,3.75
2022-11-13T11:47:17.890Z,3.90
2022-11-13T11:50:06.572Z,4.05
2022-11-13T11:53:16.806Z,3.80
2022-11-13T11:56:08.248Z,4.50
2022-11-13T11:59:08.562Z,4.45
2022-11-13T12:02:21.932Z,4.00
2022-11-13T12:05:25.752Z,3.90
2022-11-13T12:08:30.537Z,3.92
2022-11-13T12:11:45.413Z,3.70
2022-11-13T12:15:11.961Z,3.78
2022-11-13T12:18:08.527Z,3.03
2022-11-13T12:20:59.723Z,2.60
2022-11-13T12:24:03.560Z,2.80
2022-11-13T12:27:13.560Z,2.95
2022-11-13T12:30:14.668Z,2.85
2022-11-13T12:33:23.399Z,3.50
2022-11-13T12:36:11.997Z,3.42
2022-11-13T12:39:12.518Z,2.92
2022-11-13T12:42:12.424Z,3.15
2022-11-13T12:45:04.697Z,3.20
2022-11-13T12:47:51.985Z,3.25
2022-11-13T12:50:37.257Z,3.15
2022-11-13T12:53:28.379Z,3.47
2022-11-13T12:56:28.382Z,3.20
2022-11-13T12:59:36.484Z,3.42
2022-11-13T13:02:40.622Z,4.00
2022-11-13T13:05:40.254Z,4.10
2022-11-13T13:09:17.728Z,3.95
2022-11-13T13:12:13.804Z,5.65
2022-11-13T13:15:17.652Z,6.20
2022-11-13T13:18:11.616Z,6.45
2022-11-13T13:21:08.572Z,7.18
2022-11-13T13:23:53.665Z,6.20
2022-11-13T13:26:46.463Z,6.18
2022-11-13T13:29:33.351Z,6.23
2022-11-13T13:32:24.081Z,5.50
2022-11-13T13:35:43.062Z,5.60
2022-11-13T13:38:35.608Z,5.13
2022-11-13T13:41:27.123Z,4.72
2022-11-13T13:44:38.489Z,4.85
2022-11-13T13:47:38.952Z,3.90
2022-11-13T13:50:38.936Z,4.57
2022-11-13T13:53:34.518Z,3.90
2022-11-13T13:56:21.288Z,4.13
2022-11-13T13:59:14.010Z,4.07
2022-11-13T14:02:01.837Z,4.53
2022-11-13T14:04:52.582Z,4.70
2022-11-13T14:07:46.080Z,4.70
2022-11-13T14:10:31.088Z,4.03
2022-11-13T14:13:34.551Z,4.75
2022-11-13T14:16:19.429Z,4.80
2022-11-13T14:19:05.460Z,4.32
2022-11-13T14:21:53.926Z,4.80
2022-11-13T14:24:49.539Z,4.75
2022-11-13T14:27:34.613Z,4.47
2022-11-13T14:30:28.739Z,4.40
2022-11-13T14:36:07.531Z,4.45
2022-11-13T14:38:53.330Z,4.38
2022-11-13T14:41:53.126Z,4.50
2022-11-13T14:44:38.413Z,4.13
2022-11-13T14:47:29.989Z,4.65
2022-11-13T14:50:22.876Z,4.15
2022-11-13T14:53:10.360Z,4.05
2022-11-13T14:56:01.923Z,3.85
2022-11-13T14:58:47.581Z,3.50
2022-11-13T15:01:32.721Z,4.13
2022-11-13T15:04:17.859Z,4.20
2022-11-13T15:07:18.760Z,3.90
2022-11-13T15:10:04.066Z,4.10
2022-11-13T15:12:49.290Z,3.67
2022-11-13T15:15:34.291Z,4.00
2022-11-13T15:18:19.854Z,3.78
2022-11-13T15:21:05.420Z,4.22
2022-11-13T15:23:50.634Z,4.22
2022-11-13T15:26:35.454Z,3.78
2022-11-13T15:29:20.396Z,3.88
2022-11-13T15:32:05.471Z,3.85
2022-11-13T15:34:50.363Z,3.70
2022-11-13T15:37:35.188Z,4.15
2022-11-13T15:40:20.088Z,3.75
2022-11-13T15:43:09.783Z,3.67
2022-11-13T15:45:54.899Z,3.50
2022-11-13T15:48:39.710Z,3.90
2022-11-13T15:51:32.794Z,4.40
2022-11-13T15:54:31.500Z,3.75
2022-11-13T15:57:30.172Z,4.07
2022-11-13T16:00:21.481Z,3.70
2022-11-13T16:03:11.467Z,3.78
2022-11-13T16:05:58.696Z,4.35
2022-11-13T16:08:44.194Z,4.68
2022-11-13T16:11:34.827Z,4.50
2022-11-13T16:14:24.550Z,4.82
2022-11-13T16:17:20.197Z,4.50
2022-11-13T16:20:07.944Z,4.88
2022-11-13T16:22:53.256Z,5.05
2022-11-13T16:25:38.400Z,5.60
2022-11-13T16:28:23.426Z,5.57
2022-11-13T16:31:08.325Z,5.65
2022-11-13T16:33:53.166Z,6.18
2022-11-13T16:36:38.135Z,5.95
2022-11-13T16:39:23.332Z,5.85
2022-11-13T16:42:08.546Z,5.25
2022-11-13T16:44:53.565Z,5.32
2022-11-13T16:47:38.504Z,4.93
2022-11-13T16:50:28.593Z,4.72
2022-11-13T16:53:13.624Z,4.70
2022-11-13T16:55:58.700Z,4.57
2022-11-13T16:58:43.895Z,5.32
2022-11-13T17:01:29.055Z,5.35
2022-11-13T17:04:17.255Z,4.90
2022-11-13T17:07:02.422Z,4.88
2022-11-13T17:09:55.113Z,5.97
2022-11-13T17:12:53.699Z,5.90
2022-11-13T17:15:38.715Z,5.30
2022-11-13T17:18:23.699Z,5.93
2022-11-13T17:21:08.527Z,5.40
2022-11-13T17:23:57.929Z,5.22
2022-11-13T17:26:43.013Z,5.70
2022-11-13T17:29:28.097Z,5.63
2022-11-13T17:32:12.989Z,5.57
2022-11-13T17:34:58.139Z,5.82
2022-11-13T17:37:43.430Z,6.30
2022-11-13T17:40:28.828Z,6.72
2022-11-13T17:43:14.329Z,7.22
2022-11-13T17:45:59.320Z,6.65
2022-11-13T17:48:44.823Z,7.15
2022-11-13T17:51:29.944Z,7.20
2022-11-13T17:54:15.276Z,6.82
2022-11-13T17:57:02.066Z,7.25
2022-11-13T17:59:47.192Z,7.28
2022-11-13T18:02:33.981Z,7.35
2022-11-13T18:05:18.750Z,7.30
2022-11-13T18:08:05.884Z,7.43
2022-11-13T18:10:50.917Z,8.00
2022-11-13T18:13:37.014Z,7.13
2022-11-13T18:16:30.581Z,7.15
2022-11-13T18:19:15.714Z,7.45
2022-11-13T18:22:00.899Z,7.88
2022-11-13T18:24:45.984Z,7.45
2022-11-13T18:27:31.027Z,7.60
2022-11-13T18:30:16.850Z,7.18
2022-11-13T18:33:02.224Z,6.95
2022-11-13T18:35:47.091Z,6.90
2022-11-13T18:38:32.493Z,7.15
2022-11-13T18:41:20.188Z,6.85
2022-11-13T18:44:05.078Z,7.40
2022-11-13T18:46:50.005Z,7.22
2022-11-13T18:49:34.795Z,7.25
2022-11-13T18:52:19.710Z,7.35
2022-11-13T18:55:04.822Z,6.93
2022-11-13T18:57:50.250Z,8.18
2022-11-13T19:00:35.438Z,7.88
2022-11-13T19:03:20.840Z,8.10
2022-11-13T19:06:12.621Z,7.15
2022-11-13T19:09:00.318Z,7.35
2022-11-13T19:11:45.890Z,7.18
2022-11-13T19:14:31.045Z,7.15
2022-11-13T19:17:15.972Z,7.25
2022-11-13T19:20:00.947Z,7.55
2022-11-13T19:22:45.945Z,7.57
2022-11-13T19:25:31.283Z,7.18
2022-11-13T19:28:16.263Z,7.82
2022-11-13T19:31:05.615Z,7.85
2022-11-13T19:34:02.144Z,7.80
2022-11-13T19:36:49.341Z,7.70
2022-11-13T19:39:34.924Z,7.22
2022-11-13T19:42:19.943Z,7.65
2022-11-13T19:45:04.911Z,7.30
2022-11-13T19:47:50.161Z,6.82
2022-11-13T19:50:35.031Z,7.15
2022-11-13T19:53:19.988Z,8.35
2022-11-13T19:56:06.469Z,8.30
2022-11-13T19:58:52.393Z,8.48
2022-11-13T20:01:37.452Z,8.52
2022-11-13T20:04:23.165Z,8.55
2022-11-13T20:07:14.805Z,8.18
2022-11-13T20:09:59.693Z,8.23
2022-11-13T20:12:46.176Z,8.30
2022-11-13T20:15:32.331Z,8.07
2022-11-13T20:18:17.712Z,7.82
2022-11-13T20:21:02.977Z,8.82
2022-11-13T20:23:47.972Z,8.07
2022-11-13T20:26:33.096Z,8.05
2022-11-13T20:29:18.539Z,7.45
2022-11-13T20:32:03.926Z,8.15
2022-11-13T20:34:48.988Z,7.30
2022-11-13T20:37:34.451Z,8.20
2022-11-13T20:40:19.367Z,8.35
2022-11-13T20:43:04.522Z,7.63
2022-11-13T20:45:49.553Z,8.40
2022-11-13T20:48:35.429Z,7.38
2022-11-13T20:51:23.641Z,7.50
2022-11-13T20:54:08.519Z,7.95
2022-11-13T20:56:53.440Z,7.80
2022-11-13T20:59:38.161Z,7.85
2022-11-13T21:02:23.400Z,7.70
2022-11-13T21:05:08.678Z,8.23
2022-11-13T21:07:54.016Z,7.93
2022-11-13T21:10:39.218Z,8.27
2022-11-13T21:13:24.208Z,8.80
2022-11-13T21:16:09.740Z,9.38
2022-11-13T21:18:56.797Z,9.85
2022-11-13T21:21:41.988Z,10.45
2022-11-13T21:24:27.055Z,10.27
2022-11-13T21:27:11.974Z,11.25
2022-11-13T21:29:57.020Z,11.25
2022-11-13T21:32:41.978Z,11.18
2022-11-13T21:35:30.177Z,11.38
2022-11-13T21:38:15.479Z,11.27
2022-11-13T21:41:21.442Z,11.43
2022-11-13T21:44:08.453Z,11.07
2022-11-13T21:46:54.124Z,11.00
2022-11-13T21:49:39.248Z,11.27
2022-11-13T21:52:24.324Z,11.63
2022-11-13T21:55:10.546Z,12.07
2022-11-13T21:57:55.794Z,11.80
2022-11-13T22:00:40.822Z,11.95
2022-11-13T22:03:26.755Z,12.75
2022-11-13T22:06:29.396Z,12.73
2022-11-13T22:09:15.593Z,12.57
2022-11-13T22:12:00.753Z,13.23
2022-11-13T22:14:45.667Z,12.90
2022-11-13T22:17:30.399Z,11.32
2022-11-13T22:20:15.597Z,13.05
2022-11-13T22:23:00.640Z,11.57
2022-11-13T22:25:45.449Z,12.25
2022-11-13T22:28:32.661Z,11.68
2022-11-13T22:31:20.272Z,11.02
2022-11-13T22:34:05.937Z,11.27
2022-11-13T22:36:51.135Z,10.88
2022-11-13T22:39:36.072Z,10.38
2022-11-13T22:42:20.914Z,10.50
2022-11-13T22:45:22.364Z,10.13
2022-11-13T22:48:10.490Z,10.13
2022-11-13T22:50:56.029Z,10.43
2022-11-13T22:53:42.593Z,9.43
2022-11-13T22:56:30.013Z,9.50
2022-11-13T22:59:14.871Z,8.73
2022-11-13T23:01:59.740Z,9.45
2022-11-13T23:04:45.221Z,8.70
2022-11-13T23:07:30.544Z,9.38
2022-11-13T23:10:15.872Z,8.43
2022-11-13T23:13:00.750Z,8.68
2022-11-13T23:15:45.879Z,9.15
2022-11-13T23:18:32.312Z,9.35
2022-11-13T23:21:18.482Z,8.70
2022-11-13T23:24:03.989Z,8.57
2022-11-13T23:26:49.034Z,8.90
2022-11-13T23:29:33.890Z,9.43
2022-11-13T23:32:18.822Z,8.25
2022-11-13T23:35:03.848Z,9.30
2022-11-13T23:37:49.231Z,8.40
2022-11-13T23:40:34.158Z,8.98
2022-11-13T23:43:19.420Z,8.32
2022-11-13T23:46:04.931Z,9.07
2022-11-13T23:48:50.099Z,8.52
2022-11-13T23:51:35.589Z,8.32
2022-11-13T23:54:20.383Z,8.25
2022-11-13T23:57:05.315Z,8.35
2022-11-13T23:59:50.148Z,9.27
